createdAt,value
2023-02-22T00:01:35.369Z,7.40
2023-02-22T00:04:04.582Z,7.50
2023-02-22T00:06:31.836Z,7.40
2023-02-22T00:08:59.755Z,7.40
2023-02-22T00:11:26.875Z,7.40
2023-02-22T00:13:57.012Z,7.40
2023-02-22T00:16:25.297Z,7.40
2023-02-22T00:18:53.267Z,7.40
2023-02-22T00:21:20.737Z,7.40
2023-02-22T00:23:47.900Z,7.40
2023-02-22T00:26:18.163Z,7.40
2023-02-22T00:28:48.278Z,7.40
2023-02-22T00:31:15.914Z,7.40
2023-02-22T00:33:43.402Z,7.40
2023-02-22T00:36:12.088Z,7.30
2023-02-22T00:38:39.859Z,7.30
2023-02-22T00:41:07.193Z,7.30
2023-02-22T00:43:34.829Z,7.30
2023-02-22T00:46:01.893Z,7.30
2023-02-22T00:48:29.008Z,7.30
2023-02-22T00:50:56.114Z,7.30
2023-02-22T00:53:24.237Z,7.30
2023-02-22T00:55:52.010Z,7.20
2023-02-22T00:58:18.915Z,7.30
2023-02-22T01:00:46.418Z,7.20
2023-02-22T01:03:17.645Z,7.20
2023-02-22T01:05:44.969Z,7.20
2023-02-22T01:08:14.258Z,7.10
2023-02-22T01:10:41.903Z,7.10
2023-02-22T01:13:11.956Z,7.10
2023-02-22T01:15:41.446Z,7.10
2023-02-22T01:18:08.834Z,7.10
2023-02-22T01:20:35.817Z,7.10
2023-02-22T01:23:06.433Z,7.10
2023-02-22T01:25:34.267Z,7.10
2023-02-22T01:28:02.148Z,7.10
2023-02-22T01:30:32.966Z,7.10
2023-02-22T01:33:01.686Z,7.10
2023-02-22T01:35:35.263Z,7.10
2023-02-22T01:38:02.522Z,7.00
2023-02-22T01:40:35.279Z,7.00
2023-02-22T01:43:18.853Z,6.90
2023-02-22T01:45:54.404Z,6.90
2023-02-22T01:48:38.903Z,6.80
2023-02-22T01:51:17.085Z,6.80
2023-02-22T01:53:58.421Z,6.80
2023-02-22T01:56:28.671Z,6.90
2023-02-22T01:59:06.659Z,6.80
2023-02-22T02:01:34.853Z,6.90
2023-02-22T02:04:06.154Z,6.90
2023-02-22T02:06:34.739Z,6.90
2023-02-22T02:09:20.912Z,6.90
2023-02-22T02:11:49.367Z,6.90
2023-02-22T02:14:16.543Z,6.80
2023-02-22T02:16:51.837Z,6.80
2023-02-22T02:19:40.170Z,6.90
2023-02-22T02:22:18.776Z,6.80
2023-02-22T02:25:00.601Z,6.80
2023-02-22T02:27:51.332Z,6.80
2023-02-22T02:30:37.435Z,6.80
2023-02-22T02:33:33.297Z,6.80
2023-02-22T02:36:16.123Z,6.70
2023-02-22T02:38:50.562Z,6.70
2023-02-22T02:41:31.973Z,6.70
2023-02-22T02:44:39.560Z,6.60
2023-02-22T02:47:12.955Z,6.60
2023-02-22T02:49:56.716Z,6.60
2023-02-22T02:52:25.832Z,6.60
2023-02-22T02:54:54.616Z,6.50
2023-02-22T02:57:21.873Z,6.50
2023-02-22T02:59:48.686Z,6.50
2023-02-22T03:02:22.054Z,6.50
2023-02-22T03:05:08.534Z,6.50
2023-02-22T03:07:58.712Z,6.50
2023-02-22T03:10:47.023Z,6.40
2023-02-22T03:13:29.907Z,6.40
2023-02-22T03:16:09.568Z,6.40
2023-02-22T03:18:53.908Z,6.30
2023-02-22T03:21:33.571Z,6.30
2023-02-22T03:24:12.122Z,6.30
2023-02-22T03:26:49.025Z,6.30
2023-02-22T03:29:20.231Z,6.30
2023-02-22T03:32:01.092Z,6.20
2023-02-22T03:34:41.178Z,6.20
2023-02-22T03:37:30.342Z,6.20
2023-02-22T03:40:00.050Z,6.10
2023-02-22T03:42:34.680Z,6.10
2023-02-22T03:45:06.656Z,6.10
2023-02-22T03:48:04.406Z,6.00
2023-02-22T03:50:35.659Z,5.90
2023-02-22T03:53:04.046Z,5.90
2023-02-22T03:55:34.049Z,5.80
2023-02-22T03:58:06.380Z,5.80
2023-02-22T04:00:34.767Z,5.70
2023-02-22T04:03:03.176Z,5.60
2023-02-22T04:05:30.209Z,5.50
2023-02-22T04:07:58.840Z,5.50
2023-02-22T04:10:26.764Z,5.50
2023-02-22T04:12:53.970Z,5.50
2023-02-22T04:15:23.699Z,5.50
2023-02-22T04:17:53.840Z,5.40
2023-02-22T04:20:25.327Z,5.40
2023-02-22T04:22:55.973Z,5.30
2023-02-22T04:25:24.157Z,5.30
2023-02-22T04:27:52.438Z,5.30
2023-02-22T04:30:23.465Z,5.30
2023-02-22T04:32:50.721Z,5.20
2023-02-22T04:35:20.811Z,5.20
2023-02-22T04:37:47.782Z,5.20
2023-02-22T04:40:16.808Z,5.10
2023-02-22T04:42:44.061Z,5.00
2023-02-22T04:45:11.719Z,4.90
2023-02-22T04:47:39.402Z,4.90
2023-02-22T04:50:08.027Z,4.80
2023-02-22T04:52:34.886Z,4.70
2023-02-22T04:55:01.881Z,4.60
2023-02-22T04:57:29.306Z,4.60
2023-02-22T04:59:56.659Z,4.50
2023-02-22T05:02:25.374Z,4.50
2023-02-22T05:04:52.283Z,4.50
2023-02-22T05:07:19.266Z,4.40
2023-02-22T05:09:46.055Z,4.40
2023-02-22T05:12:12.936Z,4.40
2023-02-22T05:14:39.844Z,4.40
2023-02-22T05:17:06.651Z,4.30
2023-02-22T05:19:33.582Z,4.30
2023-02-22T05:22:00.531Z,4.20
2023-02-22T05:24:27.406Z,4.20
2023-02-22T05:26:54.309Z,4.20
2023-02-22T05:29:21.188Z,4.20
2023-02-22T05:31:48.100Z,4.10
2023-02-22T05:34:16.179Z,4.10
2023-02-22T05:36:43.029Z,4.10
2023-02-22T05:39:09.935Z,4.00
2023-02-22T05:41:36.754Z,4.00
2023-02-22T05:44:03.703Z,4.00
2023-02-22T05:46:30.636Z,4.00
2023-02-22T05:48:57.527Z,4.10
2023-02-22T05:51:24.376Z,4.10
2023-02-22T05:53:52.470Z,4.10
2023-02-22T05:56:28.194Z,4.10
2023-02-22T05:58:55.177Z,4.10
2023-02-22T06:01:22.660Z,4.10
2023-02-22T06:03:50.018Z,4.10
2023-02-22T06:06:17.788Z,4.10
2023-02-22T06:08:44.645Z,4.10
2023-02-22T06:11:12.355Z,4.10
2023-02-22T06:13:40.083Z,4.10
2023-02-22T06:16:08.116Z,4.10
2023-02-22T06:18:35.066Z,4.10
2023-02-22T06:21:02.017Z,4.00
2023-02-22T06:23:28.976Z,4.00
2023-02-22T06:25:55.826Z,3.90
2023-02-22T06:28:23.672Z,3.90
2023-02-22T06:30:50.632Z,3.80
2023-02-22T06:33:17.516Z,3.80
2023-02-22T06:35:45.167Z,3.70
2023-02-22T06:38:12.294Z,3.70
2023-02-22T06:40:39.232Z,3.60
2023-02-22T06:43:06.053Z,3.60
2023-02-22T06:45:32.902Z,3.60
2023-02-22T06:47:59.798Z,3.50
2023-02-22T06:50:29.127Z,3.50
2023-02-22T06:52:56.772Z,3.50
2023-02-22T06:55:33.010Z,3.50
2023-02-22T06:58:00.418Z,3.40
2023-02-22T07:00:29.364Z,3.40
2023-02-22T07:02:57.172Z,3.40
2023-02-22T07:05:25.721Z,3.40
2023-02-22T07:07:55.280Z,3.40
2023-02-22T07:10:23.933Z,3.40
2023-02-22T07:12:52.426Z,3.50
2023-02-22T07:15:21.776Z,3.50
2023-02-22T07:17:48.658Z,3.50
2023-02-22T07:20:15.993Z,3.50
2023-02-22T07:22:42.874Z,3.50
2023-02-22T07:25:11.328Z,3.60
2023-02-22T07:27:39.777Z,3.60
2023-02-22T07:30:08.027Z,3.70
2023-02-22T07:32:35.179Z,3.70
2023-02-22T07:35:02.848Z,3.70
2023-02-22T07:37:30.189Z,3.80
2023-02-22T07:39:56.946Z,3.90
2023-02-22T07:42:23.725Z,3.90
2023-02-22T07:44:50.447Z,4.00
2023-02-22T07:47:17.208Z,4.00
2023-02-22T07:49:43.943Z,4.10
2023-02-22T07:52:12.560Z,4.10
2023-02-22T07:54:39.328Z,4.20
2023-02-22T07:57:06.139Z,4.20
2023-02-22T07:59:33.841Z,4.30
2023-02-22T08:02:00.598Z,4.40
2023-02-22T08:04:27.312Z,4.50
2023-02-22T08:06:54.058Z,4.60
2023-02-22T08:09:20.811Z,4.70
2023-02-22T08:11:47.558Z,4.80
2023-02-22T08:14:15.707Z,4.90
2023-02-22T08:16:42.462Z,5.00
2023-02-22T08:19:09.217Z,5.10
2023-02-22T08:21:35.942Z,5.20
2023-02-22T08:24:02.670Z,5.30
2023-02-22T08:26:29.415Z,5.40
2023-02-22T08:28:56.902Z,5.50
2023-02-22T08:31:23.718Z,5.60
2023-02-22T08:33:50.465Z,5.70
2023-02-22T08:36:18.475Z,5.80
2023-02-22T08:38:45.252Z,5.90
2023-02-22T08:41:12.028Z,6.00
2023-02-22T08:43:38.754Z,6.20
2023-02-22T08:46:05.493Z,6.30
2023-02-22T08:48:32.225Z,6.40
2023-02-22T08:50:59.216Z,6.60
2023-02-22T08:53:26.033Z,6.80
2023-02-22T08:55:52.897Z,6.90
2023-02-22T08:58:19.670Z,7.20
2023-02-22T09:00:47.116Z,7.40
2023-02-22T09:03:14.545Z,7.50
2023-02-22T09:05:42.293Z,7.70
2023-02-22T09:08:09.484Z,7.90
2023-02-22T09:10:36.248Z,8.20
2023-02-22T09:13:03.928Z,8.30
2023-02-22T09:15:31.430Z,8.50
2023-02-22T09:17:58.399Z,8.60
2023-02-22T09:20:25.507Z,8.80
2023-02-22T09:22:53.049Z,9.10
2023-02-22T09:25:20.702Z,9.30
2023-02-22T09:27:48.400Z,9.50
2023-02-22T09:30:25.890Z,9.70
2023-02-22T09:32:54.209Z,9.90
2023-02-22T09:35:26.831Z,10.10
2023-02-22T09:37:57.819Z,10.20
2023-02-22T09:40:25.557Z,10.30
2023-02-22T09:42:56.606Z,10.40
2023-02-22T09:45:26.631Z,10.50
2023-02-22T09:48:08.051Z,10.70
2023-02-22T09:50:42.162Z,10.80
2023-02-22T09:53:41.692Z,10.90
2023-02-22T09:56:10.951Z,11.00
2023-02-22T09:58:43.202Z,11.10
2023-02-22T10:01:22.936Z,11.20
2023-02-22T10:03:52.940Z,11.30
2023-02-22T10:06:21.629Z,11.30
2023-02-22T10:08:50.062Z,11.40
2023-02-22T10:11:19.899Z,11.50
2023-02-22T10:14:05.233Z,11.70
2023-02-22T10:16:36.957Z,11.80
2023-02-22T10:19:22.617Z,11.90
2023-02-22T10:22:08.548Z,11.90
2023-02-22T10:24:53.014Z,12.00
2023-02-22T10:27:28.291Z,12.10
2023-02-22T10:29:59.237Z,12.30
2023-02-22T10:32:31.265Z,12.40
2023-02-22T10:34:58.387Z,12.60
2023-02-22T10:37:28.390Z,12.90
2023-02-22T10:40:05.275Z,13.00
2023-02-22T10:42:32.045Z,13.00
2023-02-22T10:44:58.901Z,13.10
2023-02-22T10:47:25.678Z,13.20
2023-02-22T10:49:55.617Z,13.30
2023-02-22T10:52:26.012Z,13.60
2023-02-22T10:55:01.095Z,13.80
2023-02-22T10:57:37.148Z,13.90
2023-02-22T11:00:14.326Z,14.00
2023-02-22T11:02:49.820Z,14.20
2023-02-22T11:05:36.777Z,14.40
2023-02-22T11:08:21.692Z,14.50
2023-02-22T11:10:52.646Z,14.70
2023-02-22T11:13:25.910Z,14.80
2023-02-22T11:15:53.780Z,15.20
2023-02-22T11:18:29.167Z,15.30
2023-02-22T11:21:04.287Z,15.50
2023-02-22T11:23:31.801Z,15.70
2023-02-22T11:26:03.341Z,15.70
2023-02-22T11:28:33.332Z,15.80
2023-02-22T11:31:09.374Z,15.70
2023-02-22T11:33:37.787Z,15.60
2023-02-22T11:36:08.644Z,15.50
2023-02-22T11:38:36.997Z,15.50
2023-02-22T11:41:03.688Z,15.60
2023-02-22T11:43:31.189Z,15.70
2023-02-22T11:46:02.142Z,15.80
2023-02-22T11:48:31.108Z,15.90
2023-02-22T11:51:01.981Z,15.90
2023-02-22T11:53:39.396Z,15.90
2023-02-22T11:56:12.146Z,15.90
2023-02-22T11:58:47.145Z,15.80
2023-02-22T12:01:17.261Z,15.90
2023-02-22T12:03:44.478Z,15.90
2023-02-22T12:06:14.335Z,15.90
2023-02-22T12:08:41.071Z,16.00
2023-02-22T12:11:13.670Z,16.10
2023-02-22T12:13:59.159Z,16.10
2023-02-22T12:16:25.942Z,16.10
2023-02-22T12:19:02.357Z,16.10
2023-02-22T12:21:32.175Z,16.10
2023-02-22T12:23:58.932Z,16.10
2023-02-22T12:26:30.348Z,16.00
2023-02-22T12:29:17.310Z,15.90
2023-02-22T12:31:49.963Z,15.70
2023-02-22T12:34:21.625Z,15.60
2023-02-22T12:36:52.928Z,15.80
2023-02-22T12:39:52.383Z,15.90
2023-02-22T12:42:24.623Z,16.10
2023-02-22T12:44:54.300Z,16.30
2023-02-22T12:47:23.083Z,16.30
2023-02-22T12:50:14.919Z,16.40
2023-02-22T12:53:00.027Z,16.40
2023-02-22T12:55:31.586Z,16.40
2023-02-22T12:58:08.989Z,16.50
2023-02-22T13:00:41.524Z,16.50
2023-02-22T13:03:20.181Z,16.60
2023-02-22T13:05:51.674Z,16.50
2023-02-22T13:08:18.360Z,16.50
2023-02-22T13:10:50.844Z,16.60
2023-02-22T13:13:17.554Z,16.50
2023-02-22T13:15:44.317Z,16.60
2023-02-22T13:18:17.039Z,16.60
2023-02-22T13:20:57.319Z,16.70
2023-02-22T13:23:26.818Z,16.60
2023-02-22T13:25:57.978Z,16.70
2023-02-22T13:28:50.810Z,16.70
2023-02-22T13:31:27.213Z,16.60
2023-02-22T13:34:03.308Z,16.60
2023-02-22T13:36:37.535Z,16.60
2023-02-22T13:39:11.806Z,16.60
2023-02-22T13:41:46.806Z,16.60
2023-02-22T13:44:22.881Z,16.60
2023-02-22T13:47:08.212Z,16.70
2023-02-22T13:49:39.343Z,16.60
2023-02-22T13:52:08.311Z,16.50
2023-02-22T13:54:34.987Z,16.50
2023-02-22T13:57:03.024Z,16.40
2023-02-22T13:59:29.780Z,16.50
2023-02-22T14:01:56.932Z,16.50
2023-02-22T14:04:29.434Z,16.50
2023-02-22T14:07:03.554Z,16.50
2023-02-22T14:09:45.444Z,16.50
2023-02-22T14:12:30.286Z,16.50
2023-02-22T14:15:28.226Z,16.50
2023-02-22T14:17:58.805Z,16.50
2023-02-22T14:20:32.171Z,16.40
2023-02-22T14:23:19.597Z,16.30
2023-02-22T14:25:46.505Z,16.20
2023-02-22T14:28:31.957Z,16.10
2023-02-22T14:31:29.399Z,16.10
2023-02-22T14:34:26.500Z,16.00
2023-02-22T14:36:55.983Z,16.00
2023-02-22T14:39:32.291Z,16.00
2023-02-22T14:42:02.483Z,15.90
2023-02-22T14:44:33.048Z,15.90
2023-02-22T14:47:04.844Z,15.80
2023-02-22T14:49:33.249Z,15.80
2023-02-22T14:52:03.826Z,15.70
2023-02-22T14:54:36.812Z,15.70
2023-02-22T14:57:17.533Z,15.60
2023-02-22T14:59:48.054Z,15.60
2023-02-22T15:02:14.969Z,15.60
2023-02-22T15:04:43.789Z,15.70
2023-02-22T15:07:27.247Z,15.70
2023-02-22T15:10:17.382Z,15.70
2023-02-22T15:12:50.908Z,15.80
2023-02-22T15:15:21.800Z,15.80
2023-02-22T15:17:56.165Z,15.80
2023-02-22T15:20:24.948Z,15.70
2023-02-22T15:22:52.058Z,15.70
2023-02-22T15:25:24.719Z,15.70
2023-02-22T15:27:51.792Z,15.70
2023-02-22T15:30:26.884Z,15.70
2023-02-22T15:33:03.736Z,15.60
2023-02-22T15:35:32.714Z,15.60
2023-02-22T15:38:02.576Z,15.60
2023-02-22T15:40:33.132Z,15.50
2023-02-22T15:43:10.260Z,15.50
2023-02-22T15:45:42.686Z,15.40
2023-02-22T15:48:12.635Z,15.40
2023-02-22T15:50:39.406Z,15.30
2023-02-22T15:53:08.193Z,15.30
2023-02-22T15:55:36.367Z,15.30
2023-02-22T15:58:10.737Z,15.20
2023-02-22T16:00:38.423Z,15.20
2023-02-22T16:03:06.518Z,15.10
2023-02-22T16:05:44.605Z,15.00
2023-02-22T16:08:14.103Z,15.00
2023-02-22T16:10:45.045Z,14.90
2023-02-22T16:13:31.478Z,14.80
2023-02-22T16:15:58.909Z,14.80
2023-02-22T16:18:28.336Z,14.70
2023-02-22T16:21:06.497Z,14.70
2023-02-22T16:23:42.797Z,14.70
2023-02-22T16:26:35.936Z,14.50
2023-02-22T16:29:08.572Z,14.40
2023-02-22T16:31:36.835Z,14.30
2023-02-22T16:34:05.127Z,14.20
2023-02-22T16:36:45.741Z,14.20
2023-02-22T16:39:34.627Z,14.10
2023-02-22T16:42:03.180Z,14.00
2023-02-22T16:44:29.951Z,13.90
2023-02-22T16:46:58.257Z,13.80
2023-02-22T16:49:25.304Z,13.80
2023-02-22T16:52:02.251Z,13.60
2023-02-22T16:54:30.656Z,13.60
2023-02-22T16:57:00.226Z,13.50
2023-02-22T16:59:26.932Z,13.40
2023-02-22T17:01:53.772Z,13.30
2023-02-22T17:04:22.159Z,13.20
2023-02-22T17:06:48.898Z,13.10
2023-02-22T17:09:15.798Z,13.00
2023-02-22T17:11:43.290Z,13.00
2023-02-22T17:14:10.691Z,12.90
2023-02-22T17:16:37.468Z,12.80
2023-02-22T17:19:06.217Z,12.60
2023-02-22T17:21:32.943Z,12.50
2023-02-22T17:23:59.644Z,12.50
2023-02-22T17:26:28.101Z,12.30
2023-02-22T17:28:54.801Z,12.20
2023-02-22T17:31:23.619Z,12.10
2023-02-22T17:33:51.522Z,12.00
2023-02-22T17:36:18.579Z,12.00
2023-02-22T17:38:45.425Z,11.90
2023-02-22T17:41:12.171Z,11.90
2023-02-22T17:43:38.902Z,11.90
2023-02-22T17:46:07.774Z,11.80
2023-02-22T17:48:35.192Z,11.70
2023-02-22T17:51:10.827Z,11.70
2023-02-22T17:53:38.362Z,11.60
2023-02-22T17:56:13.316Z,11.70
2023-02-22T17:58:40.855Z,11.60
2023-02-22T18:01:20.535Z,11.60
2023-02-22T18:03:47.521Z,11.60
2023-02-22T18:06:17.023Z,11.60
2023-02-22T18:08:43.988Z,11.60
2023-02-22T18:11:10.777Z,11.60
2023-02-22T18:13:37.500Z,11.50
2023-02-22T18:16:05.503Z,11.50
2023-02-22T18:18:32.697Z,11.50
2023-02-22T18:20:59.909Z,11.40
2023-02-22T18:23:28.073Z,11.40
2023-02-22T18:26:09.550Z,11.40
2023-02-22T18:28:36.736Z,11.40
2023-02-22T18:31:07.608Z,11.40
2023-02-22T18:33:34.358Z,11.30
2023-02-22T18:36:01.077Z,11.30
2023-02-22T18:38:27.790Z,11.30
2023-02-22T18:41:05.356Z,11.20
2023-02-22T18:43:34.149Z,11.20
2023-02-22T18:46:11.552Z,11.10
2023-02-22T18:48:38.592Z,11.00
2023-02-22T18:51:06.689Z,10.90
2023-02-22T18:53:33.454Z,10.80
2023-02-22T18:56:08.243Z,10.80
2023-02-22T18:58:35.434Z,10.70
2023-02-22T19:01:03.163Z,10.70
2023-02-22T19:03:30.047Z,10.70
2023-02-22T19:06:01.124Z,10.60
2023-02-22T19:08:28.455Z,10.60
2023-02-22T19:10:55.227Z,10.60
2023-02-22T19:13:22.012Z,10.50
2023-02-22T19:15:48.885Z,10.50
2023-02-22T19:18:15.728Z,10.40
2023-02-22T19:20:43.885Z,10.40
2023-02-22T19:23:10.721Z,10.30
2023-02-22T19:25:40.296Z,10.30
2023-02-22T19:28:07.017Z,10.20
2023-02-22T19:30:33.840Z,10.20
2023-02-22T19:33:04.277Z,10.20
2023-02-22T19:35:31.001Z,10.10
2023-02-22T19:37:58.094Z,10.00
2023-02-22T19:40:25.217Z,10.00
2023-02-22T19:42:52.341Z,9.90
2023-02-22T19:45:19.598Z,9.80
2023-02-22T19:47:46.813Z,9.80
2023-02-22T19:50:13.672Z,9.80
2023-02-22T19:52:40.384Z,9.70
2023-02-22T19:55:12.509Z,9.70
2023-02-22T19:57:40.240Z,9.60
2023-02-22T20:00:11.018Z,9.60
2023-02-22T20:02:39.439Z,9.50
2023-02-22T20:05:12.741Z,9.50
2023-02-22T20:07:39.568Z,9.50
2023-02-22T20:10:07.598Z,9.50
2023-02-22T20:12:34.621Z,9.50
2023-02-22T20:15:01.351Z,9.60
2023-02-22T20:17:28.093Z,9.70
2023-02-22T20:19:54.956Z,9.80
2023-02-22T20:22:21.952Z,9.90
2023-02-22T20:24:49.543Z,9.90
2023-02-22T20:27:16.558Z,10.00
2023-02-22T20:29:43.434Z,10.00
2023-02-22T20:32:12.126Z,10.00
2023-02-22T20:34:39.121Z,10.10
2023-02-22T20:37:05.962Z,10.00
2023-02-22T20:39:32.869Z,10.10
2023-02-22T20:42:04.564Z,10.10
2023-02-22T20:44:31.302Z,10.20
2023-02-22T20:46:58.002Z,10.10
2023-02-22T20:49:25.875Z,10.10
2023-02-22T20:51:52.672Z,10.10
2023-02-22T20:54:19.544Z,10.10
2023-02-22T20:56:46.958Z,10.10
2023-02-22T20:59:14.540Z,10.10
2023-02-22T21:01:42.036Z,10.10
2023-02-22T21:04:13.382Z,10.00
2023-02-22T21:06:40.444Z,10.00
2023-02-22T21:09:08.716Z,10.00
2023-02-22T21:11:35.865Z,9.90
2023-02-22T21:14:03.306Z,9.90
2023-02-22T21:16:31.564Z,9.90
2023-02-22T21:19:00.042Z,9.90
2023-02-22T21:21:27.076Z,9.80
2023-02-22T21:23:55.065Z,9.80
2023-02-22T21:26:29.467Z,9.80
2023-02-22T21:29:04.520Z,9.80
2023-02-22T21:31:32.093Z,9.70
2023-02-22T21:33:59.448Z,9.70
2023-02-22T21:36:26.764Z,9.70
2023-02-22T21:38:55.119Z,9.70
2023-02-22T21:41:23.704Z,9.60
2023-02-22T21:43:51.369Z,9.60
2023-02-22T21:46:18.476Z,9.70
2023-02-22T21:48:48.466Z,9.70
2023-02-22T21:51:19.848Z,9.70
2023-02-22T21:53:47.732Z,9.70
2023-02-22T21:56:15.708Z,9.70
2023-02-22T21:58:43.332Z,9.70
2023-02-22T22:01:10.522Z,9.70
2023-02-22T22:03:37.293Z,9.70
2023-02-22T22:06:09.752Z,9.70
2023-02-22T22:08:42.967Z,9.60
2023-02-22T22:11:10.389Z,9.60
2023-02-22T22:13:39.052Z,9.50
2023-02-22T22:16:08.011Z,9.50
2023-02-22T22:18:36.278Z,9.50
2023-02-22T22:21:10.156Z,9.50
2023-02-22T22:23:40.306Z,9.50
2023-02-22T22:26:10.869Z,9.50
2023-02-22T22:28:38.676Z,9.50
2023-02-22T22:31:05.582Z,9.50
2023-02-22T22:33:32.549Z,9.50
2023-02-22T22:35:59.283Z,9.50
2023-02-22T22:38:26.683Z,9.50
2023-02-22T22:40:53.559Z,9.50
2023-02-22T22:43:20.243Z,9.50
2023-02-22T22:45:46.962Z,9.50
2023-02-22T22:48:14.891Z,9.50
2023-02-22T22:50:46.370Z,9.50
2023-02-22T22:53:13.207Z,9.50
2023-02-22T22:55:43.368Z,9.50
2023-02-22T22:58:10.144Z,9.50
2023-02-22T23:00:37.713Z,9.40
2023-02-22T23:03:05.408Z,9.40
2023-02-22T23:05:37.142Z,9.40
2023-02-22T23:08:10.446Z,9.40
2023-02-22T23:10:40.894Z,9.40
2023-02-22T23:13:10.318Z,9.40
2023-02-22T23:15:41.798Z,9.40
2023-02-22T23:18:09.110Z,9.40
2023-02-22T23:20:38.842Z,9.40
2023-02-22T23:23:06.110Z,9.40
2023-02-22T23:25:33.483Z,9.40
2023-02-22T23:28:00.340Z,9.40
2023-02-22T23:30:27.116Z,9.40
2023-02-22T23:32:53.970Z,9.40
2023-02-22T23:35:20.701Z,9.40
2023-02-22T23:37:52.842Z,9.40
2023-02-22T23:40:19.533Z,9.40
2023-02-22T23:42:47.838Z,9.40
2023-02-22T23:45:22.478Z,9.40
2023-02-22T23:47:54.542Z,9.40
2023-02-22T23:50:23.016Z,9.40
2023-02-22T23:52:50.837Z,9.40
2023-02-22T23:55:20.653Z,9.40
2023-02-22T23:57:47.725Z,9.40
